createdAt,value
2019-05-18T00:00:35.994Z,10.88
2019-05-18T00:03:07.889Z,10.87
2019-05-18T00:05:39.379Z,10.88
2019-05-18T00:08:11.080Z,10.84
2019-05-18T00:10:42.759Z,10.84
2019-05-18T00:13:16.027Z,10.77
2019-05-18T00:15:47.374Z,10.75
2019-05-18T00:18:18.606Z,10.73
2019-05-18T00:20:51.312Z,10.75
2019-05-18T00:23:22.769Z,10.73
2019-05-18T00:25:54.154Z,10.72
2019-05-18T00:28:25.733Z,10.71
2019-05-18T00:30:56.650Z,10.70
2019-05-18T00:33:28.323Z,10.63
2019-05-18T00:35:59.688Z,10.62
2019-05-18T00:38:31.005Z,10.58
2019-05-18T00:41:02.380Z,10.57
2019-05-18T00:43:34.531Z,10.56
2019-05-18T00:46:06.918Z,10.49
2019-05-18T00:48:38.302Z,10.44
2019-05-18T00:51:09.776Z,10.40
2019-05-18T00:53:42.382Z,10.40
2019-05-18T00:56:13.964Z,10.43
2019-05-18T00:58:45.164Z,10.43
2019-05-18T01:01:16.544Z,10.42
2019-05-18T01:03:47.622Z,10.45
2019-05-18T01:06:18.593Z,10.49
2019-05-18T01:08:49.924Z,10.42
2019-05-18T01:11:20.660Z,10.38
2019-05-18T01:13:53.970Z,10.39
2019-05-18T01:16:25.694Z,10.44
2019-05-18T01:18:58.592Z,10.47
2019-05-18T01:21:29.786Z,10.45
2019-05-18T01:24:01.048Z,10.44
2019-05-18T01:26:32.651Z,10.40
2019-05-18T01:29:05.409Z,10.35
2019-05-18T01:31:37.071Z,10.39
2019-05-18T01:34:08.723Z,10.40
2019-05-18T01:36:40.107Z,10.41
2019-05-18T01:39:11.660Z,10.38
2019-05-18T01:41:43.088Z,10.34
2019-05-18T01:44:14.643Z,10.39
2019-05-18T01:46:45.430Z,10.42
2019-05-18T01:49:16.846Z,10.44
2019-05-18T01:51:48.294Z,10.39
2019-05-18T01:54:19.649Z,10.42
2019-05-18T01:56:50.947Z,10.40
2019-05-18T01:59:22.336Z,10.36
2019-05-18T02:01:53.863Z,10.29
2019-05-18T02:04:25.131Z,10.31
2019-05-18T02:06:56.445Z,10.37
2019-05-18T02:09:27.800Z,10.37
2019-05-18T02:11:59.015Z,10.39
2019-05-18T02:14:31.984Z,10.39
2019-05-18T02:17:03.342Z,10.39
2019-05-18T02:19:34.708Z,10.31
2019-05-18T02:22:06.186Z,10.29
2019-05-18T02:24:37.361Z,10.30
2019-05-18T02:27:09.018Z,10.27
2019-05-18T02:29:40.662Z,10.24
2019-05-18T02:32:11.758Z,10.16
2019-05-18T02:34:43.094Z,10.10
2019-05-18T02:37:14.330Z,10.09
2019-05-18T02:39:45.578Z,9.98
2019-05-18T02:42:16.960Z,9.88
2019-05-18T02:44:48.620Z,9.88
2019-05-18T02:47:20.056Z,9.89
2019-05-18T02:49:51.833Z,9.88
2019-05-18T02:52:22.915Z,9.97
2019-05-18T02:54:54.215Z,10.04
2019-05-18T02:57:25.643Z,10.06
2019-05-18T02:59:57.060Z,10.06
2019-05-18T03:02:28.383Z,10.05
2019-05-18T03:04:59.410Z,10.01
2019-05-18T03:07:30.622Z,9.99
2019-05-18T03:10:02.297Z,9.98
2019-05-18T03:12:34.001Z,9.93
2019-05-18T03:15:06.869Z,10.01
2019-05-18T03:17:38.136Z,10.06
2019-05-18T03:20:10.932Z,10.10
2019-05-18T03:22:42.086Z,10.14
2019-05-18T03:25:14.150Z,10.21
2019-05-18T03:27:45.562Z,10.26
2019-05-18T03:30:17.145Z,10.25
2019-05-18T03:32:48.729Z,10.23
2019-05-18T03:35:21.080Z,10.26
2019-05-18T03:37:53.400Z,10.22
2019-05-18T03:40:24.393Z,10.22
2019-05-18T03:42:55.866Z,10.26
2019-05-18T03:45:27.368Z,10.31
2019-05-18T03:47:58.443Z,10.33
2019-05-18T03:50:30.282Z,10.40
2019-05-18T03:53:02.124Z,10.41
2019-05-18T03:55:33.803Z,10.30
2019-05-18T03:58:05.492Z,10.27
2019-05-18T04:00:37.051Z,10.31
2019-05-18T04:03:08.649Z,10.30
2019-05-18T04:05:39.870Z,10.31
2019-05-18T04:08:11.234Z,10.38
2019-05-18T04:10:42.570Z,10.44
2019-05-18T04:13:13.544Z,10.52
2019-05-18T04:15:45.068Z,10.58
2019-05-18T04:18:16.475Z,10.68
2019-05-18T04:20:48.178Z,10.79
2019-05-18T04:23:19.787Z,10.89
2019-05-18T04:25:51.397Z,10.97
2019-05-18T04:28:22.257Z,11.01
2019-05-18T04:30:53.263Z,11.06
2019-05-18T04:33:24.743Z,11.18
2019-05-18T04:35:56.803Z,11.26
2019-05-18T04:38:28.085Z,11.31
2019-05-18T04:40:59.422Z,11.37
2019-05-18T04:43:30.839Z,11.44
2019-05-18T04:46:02.111Z,11.52
2019-05-18T04:48:36.026Z,11.62
2019-05-18T04:51:07.491Z,11.72
2019-05-18T04:53:38.417Z,11.80
2019-05-18T04:56:10.305Z,11.88
2019-05-18T04:58:41.963Z,11.98
2019-05-18T05:01:13.405Z,12.05
2019-05-18T05:03:45.346Z,12.13
2019-05-18T05:06:17.754Z,12.21
2019-05-18T05:08:49.065Z,12.29
2019-05-18T05:11:20.382Z,12.39
2019-05-18T05:13:52.001Z,12.47
2019-05-18T05:16:25.651Z,12.58
2019-05-18T05:18:56.881Z,12.68
2019-05-18T05:21:28.593Z,12.82
2019-05-18T05:24:00.298Z,12.99
2019-05-18T05:26:31.649Z,13.15
2019-05-18T05:29:03.115Z,13.26
2019-05-18T05:31:34.809Z,13.39
2019-05-18T05:34:06.799Z,13.52
2019-05-18T05:36:38.360Z,13.66
2019-05-18T05:39:09.541Z,13.80
2019-05-18T05:41:40.728Z,13.93
2019-05-18T05:44:12.208Z,14.05
2019-05-18T05:46:43.905Z,14.19
2019-05-18T05:49:16.070Z,14.33
2019-05-18T05:51:47.301Z,14.50
2019-05-18T05:54:18.317Z,14.65
2019-05-18T05:56:49.704Z,14.76
2019-05-18T05:59:21.097Z,14.85
2019-05-18T06:01:52.699Z,15.00
2019-05-18T06:04:24.486Z,15.18
2019-05-18T06:06:57.474Z,15.23
2019-05-18T06:09:30.634Z,15.24
2019-05-18T06:12:03.721Z,15.32
2019-05-18T06:14:34.790Z,15.50
2019-05-18T06:17:08.411Z,15.62
2019-05-18T06:19:39.334Z,15.67
2019-05-18T06:22:11.020Z,15.78
2019-05-18T06:24:42.195Z,15.86
2019-05-18T06:27:13.635Z,15.96
2019-05-18T06:29:45.550Z,16.06
2019-05-18T06:32:16.868Z,16.15
2019-05-18T06:34:48.202Z,16.26
2019-05-18T06:37:19.906Z,16.39
2019-05-18T06:39:51.346Z,16.50
2019-05-18T06:42:23.197Z,16.50
2019-05-18T06:44:54.498Z,16.52
2019-05-18T06:47:26.073Z,16.58
2019-05-18T06:49:57.545Z,16.66
2019-05-18T06:52:28.908Z,16.81
2019-05-18T06:55:01.846Z,16.93
2019-05-18T06:57:35.018Z,17.02
2019-05-18T07:00:09.460Z,17.08
2019-05-18T07:02:40.853Z,17.13
2019-05-18T07:05:12.435Z,17.26
2019-05-18T07:07:44.758Z,17.38
2019-05-18T07:10:15.803Z,17.49
2019-05-18T07:12:47.869Z,17.59
2019-05-18T07:15:19.637Z,17.73
2019-05-18T07:17:51.774Z,17.74
2019-05-18T07:20:22.901Z,17.81
2019-05-18T07:22:54.389Z,18.00
2019-05-18T07:25:25.558Z,18.06
2019-05-18T07:27:56.746Z,18.19
2019-05-18T07:30:30.597Z,18.28
2019-05-18T07:33:02.005Z,18.40
2019-05-18T07:35:33.365Z,18.45
2019-05-18T07:38:06.629Z,18.54
2019-05-18T07:40:37.948Z,18.68
2019-05-18T07:43:09.781Z,18.73
2019-05-18T07:45:41.173Z,18.87
2019-05-18T07:48:12.453Z,19.01
2019-05-18T07:50:43.493Z,19.09
2019-05-18T07:53:14.949Z,19.20
2019-05-18T07:55:45.323Z,19.23
2019-05-18T07:58:16.757Z,19.30
2019-05-18T08:00:47.874Z,19.43
2019-05-18T08:03:19.019Z,19.60
2019-05-18T08:05:53.310Z,19.74
2019-05-18T08:08:24.765Z,19.82
2019-05-18T08:10:56.459Z,19.92
2019-05-18T08:13:26.687Z,20.06
2019-05-18T08:15:57.113Z,20.19
2019-05-18T08:18:27.109Z,20.26
2019-05-18T08:20:58.215Z,20.24
2019-05-18T08:23:29.539Z,20.22
2019-05-18T08:26:00.433Z,20.20
2019-05-18T08:28:31.991Z,20.37
2019-05-18T08:31:03.524Z,20.45
2019-05-18T08:33:35.356Z,20.52
2019-05-18T08:36:07.526Z,20.42
2019-05-18T08:38:39.140Z,20.65
2019-05-18T08:41:10.173Z,20.68
2019-05-18T08:43:40.938Z,20.96
2019-05-18T08:46:11.663Z,21.13
2019-05-18T08:48:42.667Z,21.41
2019-05-18T08:51:13.930Z,21.60
2019-05-18T08:53:44.756Z,21.54
2019-05-18T08:56:15.716Z,21.65
2019-05-18T08:58:47.192Z,21.76
2019-05-18T09:01:25.028Z,21.99
2019-05-18T09:03:59.140Z,21.81
2019-05-18T09:06:30.024Z,21.57
2019-05-18T09:09:01.601Z,21.47
2019-05-18T09:11:35.072Z,21.57
2019-05-18T09:14:06.559Z,21.90
2019-05-18T09:16:40.259Z,22.03
2019-05-18T09:19:11.754Z,22.05
2019-05-18T09:21:43.822Z,22.14
2019-05-18T09:24:16.073Z,22.04
2019-05-18T09:26:46.902Z,22.03
2019-05-18T09:29:17.826Z,21.89
2019-05-18T09:31:48.336Z,22.06
2019-05-18T09:34:19.094Z,21.93
2019-05-18T09:36:50.230Z,22.22
2019-05-18T09:39:21.356Z,22.50
2019-05-18T09:41:52.977Z,22.84
2019-05-18T09:44:24.675Z,23.08
2019-05-18T09:46:55.648Z,22.98
2019-05-18T09:49:29.495Z,22.85
2019-05-18T09:52:01.317Z,22.92
2019-05-18T09:54:34.459Z,22.80
2019-05-18T09:57:05.429Z,23.07
2019-05-18T09:59:40.071Z,23.25
2019-05-18T10:02:12.699Z,23.29
2019-05-18T10:04:44.057Z,23.22
2019-05-18T10:07:14.669Z,23.03
2019-05-18T10:09:47.745Z,22.87
2019-05-18T10:12:19.551Z,22.60
2019-05-18T10:14:51.389Z,22.57
2019-05-18T10:17:24.989Z,22.88
2019-05-18T10:19:55.733Z,22.78
2019-05-18T10:22:26.466Z,22.76
2019-05-18T10:24:56.994Z,23.07
2019-05-18T10:27:27.614Z,22.83
2019-05-18T10:29:58.546Z,22.47
2019-05-18T10:32:30.412Z,22.18
2019-05-18T10:35:01.139Z,22.32
2019-05-18T10:37:32.097Z,22.46
2019-05-18T10:40:04.609Z,22.95
2019-05-18T10:42:36.168Z,23.27
2019-05-18T10:45:09.195Z,23.36
2019-05-18T10:47:40.790Z,23.06
2019-05-18T10:50:13.962Z,23.19
2019-05-18T10:52:46.037Z,23.16
2019-05-18T10:55:17.415Z,23.23
2019-05-18T10:57:48.929Z,23.01
2019-05-18T11:00:21.106Z,22.92
2019-05-18T11:02:51.325Z,23.05
2019-05-18T11:05:23.151Z,23.19
2019-05-18T11:07:53.814Z,23.46
2019-05-18T11:10:27.161Z,23.76
2019-05-18T11:12:58.988Z,23.64
2019-05-18T11:15:29.724Z,23.34
2019-05-18T11:18:03.191Z,23.42
2019-05-18T11:20:34.854Z,23.74
2019-05-18T11:23:07.757Z,23.76
2019-05-18T11:25:39.693Z,23.76
2019-05-18T11:28:10.461Z,23.77
2019-05-18T11:30:40.883Z,23.84
2019-05-18T11:33:11.708Z,24.10
2019-05-18T11:35:44.603Z,24.23
2019-05-18T11:38:17.665Z,24.07
2019-05-18T11:40:50.009Z,24.18
2019-05-18T11:43:21.764Z,23.84
2019-05-18T11:45:54.347Z,23.96
2019-05-18T11:48:25.719Z,24.10
2019-05-18T11:50:57.212Z,24.28
2019-05-18T11:53:30.396Z,24.35
2019-05-18T11:56:02.764Z,24.33
2019-05-18T11:58:35.648Z,24.45
2019-05-18T12:01:08.688Z,24.54
2019-05-18T12:03:41.083Z,24.46
2019-05-18T12:06:13.938Z,24.36
2019-05-18T12:08:45.550Z,24.16
2019-05-18T12:11:17.052Z,23.77
2019-05-18T12:13:48.891Z,23.49
2019-05-18T12:16:22.435Z,23.61
2019-05-18T12:18:57.528Z,23.52
2019-05-18T12:21:30.285Z,23.88
2019-05-18T12:24:14.734Z,24.17
2019-05-18T12:26:37.570Z,24.16
2019-05-18T12:29:09.616Z,24.00
2019-05-18T12:31:42.547Z,24.03
2019-05-18T12:34:15.151Z,23.92
2019-05-18T12:36:46.871Z,23.57
2019-05-18T12:39:18.594Z,23.69
2019-05-18T12:41:51.658Z,23.70
2019-05-18T12:44:26.699Z,23.72
2019-05-18T12:47:01.645Z,23.84
2019-05-18T12:49:32.941Z,23.91
2019-05-18T12:52:05.890Z,23.73
2019-05-18T12:54:46.484Z,23.54
2019-05-18T12:57:13.803Z,23.62
2019-05-18T12:59:46.740Z,23.41
2019-05-18T13:02:18.308Z,23.36
2019-05-18T13:04:50.193Z,23.35
2019-05-18T13:07:23.228Z,23.37
2019-05-18T13:09:55.834Z,23.26
2019-05-18T13:12:26.202Z,23.08
2019-05-18T13:14:57.854Z,23.01
2019-05-18T13:17:29.004Z,23.30
2019-05-18T13:20:01.252Z,23.59
2019-05-18T13:22:32.479Z,23.58
2019-05-18T13:25:03.164Z,23.45
2019-05-18T13:27:39.303Z,23.47
2019-05-18T13:30:08.130Z,23.48
2019-05-18T13:32:40.582Z,23.44
2019-05-18T13:35:14.108Z,23.39
2019-05-18T13:37:47.107Z,23.38
2019-05-18T13:40:20.249Z,23.35
2019-05-18T13:42:51.896Z,23.45
2019-05-18T13:45:23.576Z,23.63
2019-05-18T13:47:55.593Z,23.54
2019-05-18T13:50:26.875Z,23.37
2019-05-18T13:52:58.542Z,23.24
2019-05-18T13:55:30.846Z,23.39
2019-05-18T13:58:02.672Z,23.60
2019-05-18T14:00:34.731Z,23.72
2019-05-18T14:03:06.076Z,23.85
2019-05-18T14:05:38.998Z,24.09
2019-05-18T14:08:15.558Z,24.29
2019-05-18T14:10:43.948Z,24.41
2019-05-18T14:13:16.795Z,24.43
2019-05-18T14:15:47.437Z,24.64
2019-05-18T14:18:18.753Z,24.69
2019-05-18T14:20:51.616Z,24.70
2019-05-18T14:23:21.970Z,24.65
2019-05-18T14:25:53.169Z,24.62
2019-05-18T14:28:23.813Z,24.53
2019-05-18T14:30:54.054Z,24.38
2019-05-18T14:33:25.953Z,24.48
2019-05-18T14:35:56.864Z,24.67
2019-05-18T14:38:28.002Z,24.80
2019-05-18T14:40:59.069Z,24.77
2019-05-18T14:43:29.909Z,24.85
2019-05-18T14:46:01.589Z,24.92
2019-05-18T14:48:33.451Z,24.85
2019-05-18T14:51:05.597Z,24.83
2019-05-18T14:53:36.712Z,24.93
2019-05-18T14:56:07.991Z,24.86
2019-05-18T14:58:39.011Z,24.93
2019-05-18T15:01:10.378Z,24.86
2019-05-18T15:03:40.632Z,24.83
2019-05-18T15:06:11.094Z,24.89
2019-05-18T15:08:42.529Z,24.88
2019-05-18T15:11:14.049Z,24.93
2019-05-18T15:13:45.247Z,25.01
2019-05-18T15:16:16.908Z,25.07
2019-05-18T15:18:48.223Z,25.11
2019-05-18T15:21:22.732Z,25.13
2019-05-18T15:23:55.423Z,25.19
2019-05-18T15:26:26.393Z,25.00
2019-05-18T15:28:57.486Z,24.89
2019-05-18T15:31:29.437Z,24.91
2019-05-18T15:34:00.937Z,24.86
2019-05-18T15:36:32.800Z,24.92
2019-05-18T15:39:07.466Z,24.95
2019-05-18T15:41:40.516Z,24.98
2019-05-18T15:44:11.899Z,24.94
2019-05-18T15:46:43.136Z,24.79
2019-05-18T15:49:14.567Z,24.71
2019-05-18T15:51:45.699Z,24.72
2019-05-18T15:54:18.414Z,24.44
2019-05-18T15:56:49.363Z,24.57
2019-05-18T15:59:20.849Z,24.43
2019-05-18T16:01:51.873Z,24.47
2019-05-18T16:04:24.946Z,24.52
2019-05-18T16:06:56.029Z,24.50
2019-05-18T16:09:28.907Z,24.68
2019-05-18T16:12:01.597Z,24.79
2019-05-18T16:14:33.372Z,24.62
2019-05-18T16:17:06.162Z,24.60
2019-05-18T16:19:37.681Z,24.51
2019-05-18T16:22:08.455Z,24.43
2019-05-18T16:24:43.138Z,24.23
2019-05-18T16:27:14.956Z,24.32
2019-05-18T16:29:45.268Z,24.32
2019-05-18T16:32:15.716Z,24.31
2019-05-18T16:34:46.902Z,24.29
2019-05-18T16:37:20.369Z,24.27
2019-05-18T16:39:51.937Z,24.34
2019-05-18T16:42:22.433Z,24.24
2019-05-18T16:44:54.388Z,24.17
2019-05-18T16:47:25.128Z,24.17
2019-05-18T16:49:57.138Z,24.22
2019-05-18T16:52:28.406Z,24.20
2019-05-18T16:55:01.065Z,24.27
2019-05-18T16:57:31.839Z,24.29
2019-05-18T17:00:01.848Z,24.16
2019-05-18T17:02:32.950Z,24.05
2019-05-18T17:05:04.300Z,23.92
2019-05-18T17:07:36.156Z,23.74
2019-05-18T17:10:07.638Z,23.55
2019-05-18T17:12:39.284Z,23.49
2019-05-18T17:15:10.714Z,23.39
2019-05-18T17:17:41.077Z,23.36
2019-05-18T17:20:12.132Z,23.29
2019-05-18T17:22:43.909Z,23.23
2019-05-18T17:25:19.371Z,23.09
2019-05-18T17:27:50.801Z,22.97
2019-05-18T17:30:25.643Z,22.91
2019-05-18T17:32:57.143Z,22.79
2019-05-18T17:35:28.945Z,22.68
2019-05-18T17:38:00.956Z,22.67
2019-05-18T17:40:33.592Z,22.59
2019-05-18T17:43:05.709Z,22.52
2019-05-18T17:45:38.047Z,22.43
2019-05-18T17:48:09.694Z,22.35
2019-05-18T17:50:41.174Z,22.28
2019-05-18T17:53:12.948Z,22.21
2019-05-18T17:55:44.803Z,22.21
2019-05-18T17:58:16.202Z,22.13
2019-05-18T18:00:48.190Z,22.05
2019-05-18T18:03:20.217Z,21.98
2019-05-18T18:05:52.272Z,21.94
2019-05-18T18:08:24.909Z,21.86
2019-05-18T18:10:57.950Z,21.76
2019-05-18T18:13:29.393Z,21.69
2019-05-18T18:16:01.453Z,21.57
2019-05-18T18:18:34.967Z,21.49
2019-05-18T18:21:07.585Z,21.36
2019-05-18T18:23:39.575Z,21.20
2019-05-18T18:26:11.449Z,21.07
2019-05-18T18:28:43.294Z,21.04
2019-05-18T18:31:15.006Z,20.96
2019-05-18T18:33:47.481Z,20.81
2019-05-18T18:36:18.628Z,20.62
2019-05-18T18:38:51.275Z,20.53
2019-05-18T18:41:22.961Z,20.25
2019-05-18T18:43:54.832Z,19.92
2019-05-18T18:46:26.385Z,19.65
2019-05-18T18:48:57.911Z,19.36
2019-05-18T18:51:29.994Z,19.19
2019-05-18T18:54:01.950Z,19.14
2019-05-18T18:56:33.355Z,19.07
2019-05-18T18:59:05.679Z,19.02
2019-05-18T19:01:37.337Z,18.88
2019-05-18T19:04:08.721Z,18.77
2019-05-18T19:06:41.064Z,18.58
2019-05-18T19:09:12.294Z,18.44
2019-05-18T19:11:45.109Z,18.30
2019-05-18T19:14:18.512Z,18.21
2019-05-18T19:16:54.972Z,18.02
2019-05-18T19:19:28.413Z,17.90
2019-05-18T19:22:00.540Z,17.81
2019-05-18T19:24:34.700Z,17.62
2019-05-18T19:27:07.142Z,17.51
2019-05-18T19:29:39.882Z,17.45
2019-05-18T19:32:15.136Z,17.31
2019-05-18T19:34:48.379Z,17.14
2019-05-18T19:37:21.788Z,17.03
2019-05-18T19:39:55.305Z,17.00
2019-05-18T19:42:27.908Z,17.02
2019-05-18T19:44:59.872Z,16.86
2019-05-18T19:47:32.145Z,16.76
2019-05-18T19:50:05.704Z,16.70
2019-05-18T19:52:39.637Z,16.65
2019-05-18T19:55:12.842Z,16.48
2019-05-18T19:57:47.962Z,16.30
2019-05-18T20:00:25.720Z,16.23
2019-05-18T20:02:59.485Z,16.15
2019-05-18T20:05:31.451Z,16.15
2019-05-18T20:08:04.773Z,16.10
2019-05-18T20:10:36.641Z,16.09
2019-05-18T20:13:09.981Z,15.96
2019-05-18T20:15:41.879Z,15.93
2019-05-18T20:18:13.550Z,15.80
2019-05-18T20:20:47.077Z,15.65
2019-05-18T20:23:20.359Z,15.52
2019-05-18T20:25:53.198Z,15.48
2019-05-18T20:28:25.979Z,15.49
2019-05-18T20:30:58.615Z,15.34
2019-05-18T20:33:30.277Z,15.19
2019-05-18T20:36:02.851Z,15.23
2019-05-18T20:38:35.141Z,15.20
2019-05-18T20:41:07.568Z,15.19
2019-05-18T20:43:40.283Z,15.15
2019-05-18T20:46:12.069Z,15.10
2019-05-18T20:48:43.479Z,15.05
2019-05-18T20:51:15.291Z,15.01
2019-05-18T20:53:46.931Z,15.01
2019-05-18T20:56:19.230Z,14.96
2019-05-18T20:58:51.074Z,14.90
2019-05-18T21:01:22.928Z,14.87
2019-05-18T21:03:55.437Z,14.70
2019-05-18T21:06:27.477Z,14.68
2019-05-18T21:08:59.646Z,14.66
2019-05-18T21:11:34.361Z,14.61
2019-05-18T21:14:05.824Z,14.57
2019-05-18T21:16:37.577Z,14.54
2019-05-18T21:19:08.792Z,14.54
2019-05-18T21:21:40.998Z,14.47
2019-05-18T21:24:14.743Z,14.48
2019-05-18T21:26:47.570Z,14.39
2019-05-18T21:29:19.144Z,14.18
2019-05-18T21:31:50.700Z,14.09
2019-05-18T21:34:22.798Z,14.00
2019-05-18T21:36:54.539Z,13.85
2019-05-18T21:39:26.613Z,13.76
2019-05-18T21:41:58.093Z,13.68
2019-05-18T21:44:29.941Z,13.59
2019-05-18T21:47:01.574Z,13.63
2019-05-18T21:49:33.818Z,13.58
2019-05-18T21:52:06.070Z,13.56
2019-05-18T21:54:38.436Z,13.56
2019-05-18T21:57:10.498Z,13.63
2019-05-18T21:59:42.071Z,13.52
2019-05-18T22:02:14.361Z,13.45
2019-05-18T22:04:46.580Z,13.46
2019-05-18T22:07:18.994Z,13.44
2019-05-18T22:09:53.674Z,13.26
2019-05-18T22:12:24.700Z,13.30
2019-05-18T22:14:56.715Z,13.27
2019-05-18T22:17:29.188Z,13.25
2019-05-18T22:20:00.867Z,13.30
2019-05-18T22:22:32.665Z,13.27
2019-05-18T22:25:05.497Z,13.21
2019-05-18T22:27:36.589Z,13.22
2019-05-18T22:30:08.397Z,13.26
2019-05-18T22:32:40.116Z,13.25
2019-05-18T22:35:11.830Z,13.16
2019-05-18T22:37:43.251Z,13.14
2019-05-18T22:40:15.225Z,13.06
2019-05-18T22:42:46.776Z,13.10
2019-05-18T22:45:18.864Z,13.13
2019-05-18T22:47:49.991Z,13.12
2019-05-18T22:50:22.123Z,13.09
2019-05-18T22:52:54.641Z,12.93
2019-05-18T22:55:26.853Z,12.84
2019-05-18T22:57:58.009Z,12.75
2019-05-18T23:00:29.875Z,12.74
2019-05-18T23:03:02.223Z,12.75
2019-05-18T23:05:34.332Z,12.79
2019-05-18T23:08:05.974Z,12.63
2019-05-18T23:10:38.175Z,12.56
2019-05-18T23:13:11.440Z,12.56
2019-05-18T23:15:43.168Z,12.51
2019-05-18T23:18:15.808Z,12.52
2019-05-18T23:20:47.304Z,12.51
2019-05-18T23:23:20.011Z,12.51
2019-05-18T23:25:53.065Z,12.52
2019-05-18T23:28:24.749Z,12.57
2019-05-18T23:30:56.259Z,12.57
2019-05-18T23:33:27.972Z,12.57
2019-05-18T23:36:00.414Z,12.50
2019-05-18T23:38:31.573Z,12.48
2019-05-18T23:41:03.064Z,12.49
2019-05-18T23:43:36.785Z,12.46
2019-05-18T23:46:08.316Z,12.50
2019-05-18T23:48:39.943Z,12.45
2019-05-18T23:51:11.473Z,12.41
2019-05-18T23:53:44.028Z,12.43
2019-05-18T23:56:16.224Z,12.40
2019-05-18T23:58:47.454Z,12.41
